Time;durP1;ratioP1;P1;durP2;ratioP2;P2;SDS_P1;SDS_P2;PMS_P1;PMS_P2;Temp;Humidity;BMP_temperature;BMP_pressure;BME280_temperature;BME280_humidity;BME280_pressure;Samples;Min_cycle;Max_cycle;Signal;HPM_P1;HPM_P2
2023/11/15 00:00:33;;;;;;;8.10;5.80;;;;;;;12.34;63.54;99757.04;107926;1290;22001;-66
2023/11/15 00:02:58;;;;;;;11.10;6.80;;;;;;;12.30;63.50;99762.95;107931;1284;24312;-68
2023/11/15 00:05:24;;;;;;;10.30;6.60;;;;;;;12.25;63.48;99775.75;107875;1290;21998;-62
2023/11/15 00:07:50;;;;;;;11.80;7.10;;;;;;;12.19;63.40;99769.06;107823;1290;24113;-63
2023/11/15 00:10:15;;;;;;;8.90;6.30;;;;;;;12.13;63.60;99766.27;107912;1286;21991;-62
2023/11/15 00:12:42;;;;;;;8.50;6.40;;;;;;;12.10;63.71;99768.47;107828;1280;22007;-62
2023/11/15 00:15:08;;;;;;;9.10;6.30;;;;;;;12.09;63.95;99769.70;107828;1290;21996;-62
2023/11/15 00:17:34;;;;;;;9.50;6.60;;;;;;;12.11;63.79;99765.09;107855;1290;22086;-67
2023/11/15 00:20:03;;;;;;;10.90;6.50;;;;;;;12.10;63.81;99770.55;107790;1286;22010;-67
2023/11/15 00:22:31;;;;;;;9.30;6.80;;;;;;;12.08;63.51;99772.20;107832;1290;21995;-62
2023/11/15 00:24:57;;;;;;;10.40;7.30;;;;;;;12.04;63.30;99754.20;107860;1290;22004;-66
2023/11/15 00:27:23;;;;;;;10.40;7.00;;;;;;;12.01;63.34;99729.83;107895;1290;21990;-67
2023/11/15 00:29:49;;;;;;;12.30;6.80;;;;;;;11.98;63.29;99724.79;107926;1290;21993;-62
2023/11/15 00:32:14;;;;;;;13.90;6.30;;;;;;;11.92;62.82;99734.09;107817;1290;21985;-67
2023/11/15 00:34:40;;;;;;;10.60;5.90;;;;;;;11.84;62.64;99731.50;107817;1290;21989;-62
2023/11/15 00:37:06;;;;;;;10.20;5.90;;;;;;;11.79;62.77;99724.98;107882;1290;22024;-66
2023/11/15 00:39:32;;;;;;;9.40;5.70;;;;;;;11.74;62.67;99724.39;107802;1290;22000;-62
2023/11/15 00:41:58;;;;;;;9.90;6.80;;;;;;;11.69;62.57;99719.27;107882;1290;21996;-63
2023/11/15 00:44:24;;;;;;;10.40;6.80;;;;;;;11.65;62.47;99704.79;107844;1290;22015;-63
2023/11/15 00:46:49;;;;;;;7.10;5.80;;;;;;;11.63;62.71;99693.27;107869;1290;22002;-67
2023/11/15 00:49:15;;;;;;;9.20;5.60;;;;;;;11.61;62.77;99690.32;107993;1290;22458;-66
2023/11/15 00:51:40;;;;;;;8.40;5.80;;;;;;;11.58;62.77;99695.66;107971;1290;21989;-67
2023/11/15 00:54:06;;;;;;;10.10;6.30;;;;;;;11.51;62.62;99686.02;107806;1280;21997;-66
2023/11/15 00:56:32;;;;;;;9.50;6.10;;;;;;;11.43;62.32;99681.31;105600;1279;1003027;-67
2023/11/15 00:58:58;;;;;;;13.30;7.30;;;;;;;11.33;61.79;99685.96;107888;1290;22014;-67
2023/11/15 01:01:27;;;;;;;10.80;6.70;;;;;;;11.22;61.72;99688.02;107796;1290;22086;-63
2023/11/15 01:03:56;;;;;;;11.20;6.70;;;;;;;11.17;62.15;99694.11;107877;1290;22119;-63
2023/11/15 01:06:25;;;;;;;11.00;6.90;;;;;;;11.13;62.42;99702.98;107825;1290;21992;-63
2023/11/15 01:08:54;;;;;;;9.90;6.10;;;;;;;11.12;62.60;99688.80;107899;1290;21980;-67
2023/11/15 01:11:20;;;;;;;11.00;6.50;;;;;;;11.12;62.76;99668.76;107812;1290;22002;-62
2023/11/15 01:13:46;;;;;;;8.20;6.00;;;;;;;11.13;63.01;99663.81;107914;1280;22013;-64
2023/11/15 01:16:13;;;;;;;13.10;6.50;;;;;;;11.10;62.82;99663.02;107827;1290;21992;-67
2023/11/15 01:18:39;;;;;;;9.80;6.40;;;;;;;11.07;62.75;99669.96;107854;1291;21990;-63
2023/11/15 01:21:08;;;;;;;10.80;7.30;;;;;;;11.02;62.63;99693.43;107848;1279;21987;-67
2023/11/15 01:23:35;;;;;;;10.40;6.70;;;;;;;10.96;62.36;99706.75;107868;1280;22050;-62
2023/11/15 01:26:01;;;;;;;13.10;6.90;;;;;;;10.87;62.21;99702.05;108015;1290;21992;-62
2023/11/15 01:28:30;;;;;;;11.40;7.70;;;;;;;10.84;62.71;99706.66;107993;1290;22003;-62
2023/11/15 01:30:56;;;;;;;10.00;6.50;;;;;;;10.86;63.07;99708.39;107918;1284;21987;-66
2023/11/15 01:33:21;;;;;;;12.30;6.40;;;;;;;10.89;63.28;99699.73;107811;1290;21992;-62
2023/11/15 01:35:50;;;;;;;9.30;6.50;;;;;;;10.94;63.31;99695.05;107886;1290;21994;-62
2023/11/15 01:38:16;;;;;;;8.40;5.60;;;;;;;10.96;62.86;99689.89;107842;1290;21995;-67
2023/11/15 01:40:42;;;;;;;11.20;6.70;;;;;;;10.94;62.57;99691.34;107833;1290;21961;-63
2023/11/15 01:43:09;;;;;;;10.90;6.70;;;;;;;10.91;62.35;99700.02;107747;1290;23153;-64
2023/11/15 01:45:35;;;;;;;10.90;7.10;;;;;;;10.90;62.82;99697.95;107919;1287;21990;-62
2023/11/15 01:48:01;;;;;;;13.60;7.70;;;;;;;10.92;63.30;99685.08;107875;1290;21994;-67
2023/11/15 01:50:27;;;;;;;12.50;7.20;;;;;;;10.94;63.41;99674.66;107807;1290;23847;-67
2023/11/15 01:52:52;;;;;;;10.80;6.60;;;;;;;10.96;63.45;99673.40;107883;1290;21998;-66
2023/11/15 01:55:21;;;;;;;8.30;5.90;;;;;;;10.98;63.56;99690.73;107873;1290;22001;-65
2023/11/15 01:57:47;;;;;;;8.60;5.90;;;;;;;11.01;63.57;99703.80;107789;1290;21993;-63
2023/11/15 02:00:14;;;;;;;10.10;6.50;;;;;;;11.07;64.07;99686.28;107819;1284;22049;-62
2023/11/15 02:02:40;;;;;;;13.40;6.50;;;;;;;11.13;64.23;99673.48;107819;1290;22003;-63
2023/11/15 02:05:06;;;;;;;9.20;5.60;;;;;;;11.21;64.07;99677.50;107947;1289;22006;-62
2023/11/15 02:07:32;;;;;;;12.40;6.40;;;;;;;11.26;63.65;99680.19;107890;1280;22000;-63
2023/11/15 02:09:58;;;;;;;11.50;6.40;;;;;;;11.31;63.62;99679.16;107952;1289;21996;-67
2023/11/15 02:12:26;;;;;;;10.20;6.20;;;;;;;11.36;63.93;99666.73;107868;1290;22002;-66
2023/11/15 02:14:51;;;;;;;9.20;5.50;;;;;;;11.43;64.01;99649.36;107848;1290;22001;-67
2023/11/15 02:17:17;;;;;;;10.70;6.90;;;;;;;11.47;63.80;99639.92;107799;1280;22031;-66
2023/11/15 02:19:43;;;;;;;14.10;7.40;;;;;;;11.51;64.01;99637.52;107866;1290;21998;-67
2023/11/15 02:22:09;;;;;;;12.60;7.30;;;;;;;11.58;64.46;99634.88;107799;1290;21986;-63
2023/11/15 02:24:35;;;;;;;11.80;5.30;;;;;;;11.65;64.40;99634.33;107965;1287;22044;-64
2023/11/15 02:27:01;;;;;;;10.60;5.80;;;;;;;11.71;64.34;99630.63;107864;1290;21993;-68
2023/11/15 02:29:27;;;;;;;9.30;6.10;;;;;;;11.75;63.85;99645.96;107830;1290;22455;-68
2023/11/15 02:31:52;;;;;;;9.00;6.20;;;;;;;11.74;63.57;99656.74;107777;1280;22009;-62
2023/11/15 02:34:18;;;;;;;10.80;6.20;;;;;;;11.66;63.17;99663.13;107858;1289;21993;-68
2023/11/15 02:37:02;;;;;;;10.90;6.70;;;;;;;11.63;63.58;99667.26;107814;1284;21989;-68
2023/11/15 02:39:27;;;;;;;11.70;6.70;;;;;;;11.66;64.00;99667.00;107846;1289;21997;-62
2023/11/15 02:41:53;;;;;;;10.60;6.10;;;;;;;11.72;64.24;99663.48;107849;1289;21986;-69
2023/11/15 02:44:19;;;;;;;10.40;6.30;;;;;;;11.77;64.30;99660.33;107905;1283;22053;-60
2023/11/15 02:46:45;;;;;;;9.00;6.10;;;;;;;11.83;64.43;99651.20;108020;1284;22180;-62
2023/11/15 02:49:10;;;;;;;10.60;5.90;;;;;;;11.87;64.57;99642.30;107989;1284;22003;-62
2023/11/15 02:51:39;;;;;;;11.80;7.10;;;;;;;11.89;64.81;99640.66;107882;1287;21999;-67
2023/11/15 02:54:08;;;;;;;10.20;7.40;;;;;;;11.93;65.04;99649.35;107851;1290;22002;-68
2023/11/15 02:56:33;;;;;;;10.20;6.60;;;;;;;11.96;65.02;99657.33;107816;1280;22029;-63
2023/11/15 02:58:59;;;;;;;13.00;6.50;;;;;;;11.98;65.00;99659.41;107752;1290;21999;-68
2023/11/15 03:01:25;;;;;;;10.20;6.90;;;;;;;11.99;64.96;99670.63;107762;1287;21994;-63
2023/11/15 03:03:50;;;;;;;13.00;7.10;;;;;;;12.00;64.74;99679.56;107795;1287;22201;-65
2023/11/15 03:06:16;;;;;;;11.20;7.90;;;;;;;12.07;64.70;99683.07;107783;1289;22012;-68
2023/11/15 03:08:41;;;;;;;12.50;7.90;;;;;;;12.10;64.91;99687.55;107833;1290;21994;-64
2023/11/15 03:11:07;;;;;;;12.50;8.00;;;;;;;12.10;64.91;99690.55;107851;1289;21990;-63
2023/11/15 03:13:33;;;;;;;10.50;7.20;;;;;;;12.10;64.94;99691.77;107777;1289;21992;-62
2023/11/15 03:15:58;;;;;;;15.80;7.30;;;;;;;12.15;65.10;99682.12;107802;1289;21999;-67
2023/11/15 03:18:25;;;;;;;12.10;6.60;;;;;;;12.24;65.18;99684.49;107800;1287;22009;-68
2023/11/15 03:20:50;;;;;;;10.20;7.30;;;;;;;12.31;65.26;99686.76;107882;1287;21960;-62
2023/11/15 03:23:16;;;;;;;11.40;7.40;;;;;;;12.35;65.00;99681.73;107810;1283;21999;-63
2023/11/15 03:25:42;;;;;;;12.00;7.10;;;;;;;12.37;64.87;99670.05;107811;1287;22027;-63
2023/11/15 03:28:08;;;;;;;15.20;8.10;;;;;;;12.39;64.94;99662.93;107808;1288;21984;-67
2023/11/15 03:30:34;;;;;;;11.10;7.40;;;;;;;12.35;65.21;99670.98;107838;1280;22028;-62
2023/11/15 03:32:59;;;;;;;13.60;8.80;;;;;;;12.33;65.61;99674.38;107819;1280;21995;-67
2023/11/15 03:35:25;;;;;;;12.80;7.70;;;;;;;12.36;66.20;99653.17;107818;1289;22024;-62
2023/11/15 03:37:52;;;;;;;11.60;7.60;;;;;;;12.43;66.69;99637.65;107816;1289;21990;-64
2023/11/15 03:40:19;;;;;;;10.80;7.20;;;;;;;12.51;66.90;99634.94;107832;1289;21997;-62
2023/11/15 03:42:46;;;;;;;15.00;8.00;;;;;;;12.58;66.66;99636.84;107852;1289;22079;-62
2023/11/15 03:45:11;;;;;;;11.20;7.20;;;;;;;12.64;66.60;99645.77;107800;1289;21992;-68
2023/11/15 03:47:37;;;;;;;9.80;6.90;;;;;;;12.67;66.38;99650.77;107819;1289;21990;-64
2023/11/15 03:50:04;;;;;;;13.10;7.80;;;;;;;12.70;66.52;99652.98;107819;1281;22000;-62
2023/11/15 03:52:30;;;;;;;11.60;7.80;;;;;;;12.74;66.69;99653.01;107839;1280;22027;-63
2023/11/15 03:54:56;;;;;;;13.20;7.90;;;;;;;12.79;66.82;99648.80;107980;1289;22948;-61
2023/11/15 03:57:22;;;;;;;10.40;8.10;;;;;;;12.84;66.88;99652.52;107900;1289;21990;-67
2023/11/15 03:59:48;;;;;;;12.60;8.60;;;;;;;12.88;66.90;99654.31;107887;1289;21993;-66
2023/11/15 04:02:15;;;;;;;12.40;8.10;;;;;;;12.90;67.01;99648.60;107919;1289;21994;-62
2023/11/15 04:04:41;;;;;;;12.80;7.60;;;;;;;12.91;66.83;99643.29;107906;1283;21990;-61
2023/11/15 04:07:07;;;;;;;13.70;8.40;;;;;;;12.93;66.86;99647.45;107965;1287;22001;-67
2023/11/15 04:09:33;;;;;;;11.40;7.70;;;;;;;12.94;66.72;99649.00;107921;1289;22469;-61
2023/11/15 04:11:59;;;;;;;11.90;7.90;;;;;;;12.95;66.54;99640.18;107931;1289;21995;-66
2023/11/15 04:14:25;;;;;;;12.10;8.00;;;;;;;12.93;66.39;99634.94;108019;1289;21999;-66
2023/11/15 04:16:51;;;;;;;15.20;9.50;;;;;;;12.93;66.50;99627.92;107867;1289;21989;-63
2023/11/15 04:19:21;;;;;;;10.40;8.00;;;;;;;12.95;66.55;99628.39;107939;1289;21988;-66
2023/11/15 04:21:47;;;;;;;14.40;8.30;;;;;;;12.96;66.49;99624.66;107922;1289;23129;-66
2023/11/15 04:24:13;;;;;;;14.60;8.10;;;;;;;12.98;66.39;99622.65;108003;1283;21993;-65
2023/11/15 04:26:38;;;;;;;13.50;8.00;;;;;;;13.03;66.37;99623.88;107906;1289;21983;-65
2023/11/15 04:29:04;;;;;;;13.00;7.90;;;;;;;13.05;66.30;99620.30;107931;1289;21989;-64
2023/11/15 04:31:30;;;;;;;14.10;7.50;;;;;;;13.05;66.15;99613.98;107868;1289;22359;-61
2023/11/15 04:33:55;;;;;;;9.40;6.90;;;;;;;13.06;66.03;99614.99;107865;1280;22029;-61
2023/11/15 04:36:21;;;;;;;12.30;7.50;;;;;;;13.07;66.16;99612.45;107857;1289;21987;-61
2023/11/15 04:38:50;;;;;;;11.50;8.00;;;;;;;13.08;66.01;99606.43;107989;1277;23852;-66
2023/11/15 04:41:15;;;;;;;27.70;8.80;;;;;;;13.08;66.14;99610.48;107972;1289;21996;-60
2023/11/15 04:43:41;;;;;;;13.70;7.70;;;;;;;13.09;66.18;99613.63;107871;1287;22011;-67
2023/11/15 04:46:07;;;;;;;14.70;7.70;;;;;;;13.09;66.10;99618.02;107923;1289;22005;-66
2023/11/15 04:48:33;;;;;;;12.50;7.40;;;;;;;13.10;66.04;99611.84;107942;1287;21994;-66
2023/11/15 04:51:00;;;;;;;13.10;7.30;;;;;;;13.12;66.22;99616.00;107943;1289;22032;-67
2023/11/15 04:53:25;;;;;;;12.70;7.20;;;;;;;13.16;66.27;99618.67;107949;1289;22455;-66
2023/11/15 04:55:51;;;;;;;14.70;7.40;;;;;;;13.22;66.24;99615.65;107953;1289;21994;-66
2023/11/15 04:58:17;;;;;;;13.10;7.20;;;;;;;13.27;66.19;99624.11;107923;1288;21985;-66
2023/11/15 05:00:42;;;;;;;13.00;7.70;;;;;;;13.28;65.96;99626.17;107854;1289;21990;-60
2023/11/15 05:03:10;;;;;;;12.70;8.10;;;;;;;13.28;65.84;99620.36;107879;1289;22112;-61
2023/11/15 05:05:36;;;;;;;19.80;8.30;;;;;;;13.29;65.88;99618.04;107946;1289;23061;-61
2023/11/15 05:08:03;;;;;;;16.20;7.70;;;;;;;13.29;65.81;99619.80;107875;1281;22000;-60
2023/11/15 05:10:29;;;;;;;14.50;7.60;;;;;;;13.30;65.76;99625.41;107926;1283;22004;-66
2023/11/15 05:12:55;;;;;;;14.70;7.70;;;;;;;13.30;65.73;99624.71;107867;1289;21993;-66
2023/11/15 05:15:20;;;;;;;11.90;7.20;;;;;;;13.30;65.85;99621.88;107957;1278;21994;-67
2023/11/15 05:17:46;;;;;;;15.00;7.90;;;;;;;13.30;66.01;99625.23;107797;1290;21994;-67
2023/11/15 05:20:12;;;;;;;14.00;7.70;;;;;;;13.32;65.95;99625.52;107882;1287;21989;-67
2023/11/15 05:22:37;;;;;;;11.80;7.10;;;;;;;13.32;66.03;99621.28;107860;1289;21997;-61
2023/11/15 05:25:05;;;;;;;14.50;7.80;;;;;;;13.33;66.14;99620.39;107794;1281;21987;-61
2023/11/15 05:27:32;;;;;;;9.90;7.30;;;;;;;13.33;65.91;99617.90;107862;1287;21984;-61
2023/11/15 05:29:57;;;;;;;12.00;7.60;;;;;;;13.32;65.93;99613.72;107967;1284;22185;-67
2023/11/15 05:32:23;;;;;;;12.20;8.20;;;;;;;13.31;66.02;99629.61;107965;1290;21992;-60
2023/11/15 05:34:48;;;;;;;10.60;7.30;;;;;;;13.32;66.46;99630.11;107925;1290;22030;-68
2023/11/15 05:37:14;;;;;;;12.50;7.10;;;;;;;13.36;66.86;99629.95;107833;1289;22006;-68
2023/11/15 05:39:41;;;;;;;13.90;7.40;;;;;;;13.43;67.26;99640.67;107926;1290;22030;-68
2023/11/15 05:42:07;;;;;;;13.90;8.20;;;;;;;13.47;67.47;99640.71;107937;1283;22005;-69
2023/11/15 05:44:34;;;;;;;17.40;8.50;;;;;;;13.51;67.71;99633.16;107980;1289;21997;-68
2023/11/15 05:47:00;;;;;;;12.60;8.20;;;;;;;13.55;67.63;99639.17;107913;1289;22090;-61
2023/11/15 05:49:26;;;;;;;13.50;7.80;;;;;;;13.59;67.95;99634.81;107821;1289;22040;-69
2023/11/15 05:51:52;;;;;;;11.70;7.00;;;;;;;13.63;67.69;99641.21;107784;1289;22006;-69
2023/11/15 05:54:18;;;;;;;10.90;7.20;;;;;;;13.67;67.93;99654.23;107869;1289;21990;-70
2023/11/15 05:56:46;;;;;;;13.00;7.40;;;;;;;13.73;67.93;99657.57;107848;1289;21999;-61
2023/11/15 05:59:13;;;;;;;11.60;7.20;;;;;;;13.77;67.91;99665.36;107831;1280;21999;-61
2023/11/15 06:01:40;;;;;;;12.70;7.30;;;;;;;13.80;67.98;99673.55;107929;1287;21990;-68
2023/11/15 06:04:05;;;;;;;13.10;8.20;;;;;;;13.77;68.38;99690.59;107854;1289;22003;-67
2023/11/15 06:06:31;;;;;;;11.70;7.90;;;;;;;13.69;67.77;99693.34;107818;1284;21998;-60
2023/11/15 06:08:57;;;;;;;12.00;7.80;;;;;;;13.62;67.33;99686.70;107826;1283;21991;-61
2023/11/15 06:11:22;;;;;;;14.60;8.10;;;;;;;13.57;67.36;99689.00;107871;1288;22003;-68
2023/11/15 06:13:48;;;;;;;12.30;7.20;;;;;;;13.51;67.35;99697.12;107888;1290;22005;-67
2023/11/15 06:16:14;;;;;;;14.10;8.50;;;;;;;13.42;67.49;99693.38;107775;1290;22003;-62
2023/11/15 06:18:40;;;;;;;13.50;7.40;;;;;;;13.38;67.52;99686.98;107807;1286;21996;-68
2023/11/15 06:21:06;;;;;;;11.00;8.00;;;;;;;13.38;67.89;99686.79;107933;1290;21996;-62
2023/11/15 06:23:34;;;;;;;12.70;8.20;;;;;;;13.37;68.16;99688.58;107900;1283;21957;-68
2023/11/15 06:26:00;;;;;;;10.70;8.10;;;;;;;13.34;68.36;99684.48;107899;1290;21993;-63
2023/11/15 06:28:26;;;;;;;10.40;7.20;;;;;;;13.34;68.42;99678.84;107821;1290;21994;-69
2023/11/15 06:30:51;;;;;;;12.10;7.50;;;;;;;13.36;68.45;99682.45;107852;1290;22000;-62
2023/11/15 06:33:19;;;;;;;9.20;7.00;;;;;;;13.39;68.59;99686.42;107822;1290;21993;-62
2023/11/15 06:35:45;;;;;;;12.30;7.90;;;;;;;13.41;68.54;99689.20;107863;1291;22014;-68
2023/11/15 06:38:11;;;;;;;15.50;8.60;;;;;;;13.43;68.37;99691.77;107824;1277;21995;-61
2023/11/15 06:40:38;;;;;;;11.80;7.30;;;;;;;13.45;68.47;99691.01;107782;1289;21991;-62
2023/11/15 06:43:04;;;;;;;12.00;8.40;;;;;;;13.47;68.53;99680.00;108044;1289;21996;-61
2023/11/15 06:45:30;;;;;;;11.60;7.70;;;;;;;13.49;68.57;99684.15;107815;1287;23078;-68
2023/11/15 06:47:56;;;;;;;11.20;7.70;;;;;;;13.50;68.69;99688.36;107805;1289;22031;-68
2023/11/15 06:50:22;;;;;;;12.90;7.70;;;;;;;13.52;68.89;99683.18;107851;1289;21990;-61
2023/11/15 06:52:48;;;;;;;13.40;8.50;;;;;;;13.53;68.87;99681.91;107843;1287;21990;-67
2023/11/15 06:55:15;;;;;;;14.00;7.70;;;;;;;13.55;68.75;99678.32;107836;1287;21992;-68
2023/11/15 06:57:41;;;;;;;12.50;8.50;;;;;;;13.59;69.14;99672.52;107794;1290;22000;-62
2023/11/15 07:00:08;;;;;;;10.90;7.00;;;;;;;13.65;69.43;99661.05;107828;1283;22586;-61
2023/11/15 07:02:35;;;;;;;18.50;8.00;;;;;;;13.72;69.41;99658.48;107849;1283;21992;-68
2023/11/15 07:05:01;;;;;;;18.00;7.20;;;;;;;13.79;69.41;99660.19;107853;1284;21997;-61
2023/11/15 07:07:27;;;;;;;16.70;7.70;;;;;;;13.86;69.69;99659.55;107807;1290;21993;-68
2023/11/15 07:09:54;;;;;;;12.50;7.30;;;;;;;13.95;69.76;99662.56;107891;1290;22002;-61
2023/11/15 07:12:20;;;;;;;15.00;7.20;;;;;;;14.05;69.73;99667.33;107841;1290;21995;-61
2023/11/15 07:14:48;;;;;;;16.20;7.60;;;;;;;14.12;69.67;99663.86;107838;1283;21999;-62
2023/11/15 07:17:18;;;;;;;14.40;8.20;;;;;;;14.20;69.86;99654.23;107810;1290;22033;-62
2023/11/15 07:19:43;;;;;;;14.00;8.10;;;;;;;14.28;70.18;99651.61;107861;1284;22027;-61
2023/11/15 07:22:09;;;;;;;12.30;7.50;;;;;;;14.34;70.30;99661.98;107826;1290;21990;-61
2023/11/15 07:24:39;;;;;;;12.60;7.80;;;;;;;14.38;70.28;99669.40;107802;1290;22010;-69
2023/11/15 07:27:07;;;;;;;14.10;8.50;;;;;;;14.41;70.22;99680.56;107817;1290;22455;-61
2023/11/15 07:29:34;;;;;;;13.20;7.40;;;;;;;14.45;70.52;99693.30;107862;1280;21998;-62
2023/11/15 07:32:01;;;;;;;14.80;8.50;;;;;;;14.50;70.65;99704.59;107841;1290;22027;-68
2023/11/15 07:34:28;;;;;;;15.20;8.10;;;;;;;14.54;70.74;99701.80;107797;1287;21990;-62
2023/11/15 07:36:55;;;;;;;13.10;8.50;;;;;;;14.56;70.96;99692.33;107846;1290;21988;-69
2023/11/15 07:39:25;;;;;;;14.70;8.30;;;;;;;14.59;71.05;99684.27;107946;1290;21984;-62
2023/11/15 07:41:51;;;;;;;15.20;8.10;;;;;;;14.61;70.96;99688.45;107875;1290;22002;-69
2023/11/15 07:44:18;;;;;;;11.90;7.50;;;;;;;14.65;70.82;99689.89;107852;1290;21980;-69
2023/11/15 07:46:46;;;;;;;12.00;7.60;;;;;;;14.69;70.87;99690.42;107947;1290;21995;-68
2023/11/15 07:49:18;;;;;;;10.50;7.70;;;;;;;14.73;70.82;99680.95;107872;1290;22005;-69
2023/11/15 07:51:46;;;;;;;11.00;7.00;;;;;;;14.76;70.84;99662.81;107830;1284;21995;-62
2023/11/15 07:54:13;;;;;;;11.00;7.50;;;;;;;14.79;70.83;99644.48;107838;1290;22009;-62
2023/11/15 07:56:40;;;;;;;11.50;7.10;;;;;;;14.84;70.93;99646.75;107951;1290;23050;-69
2023/11/15 07:59:05;;;;;;;13.90;8.40;;;;;;;14.89;70.90;99648.30;107827;1290;21990;-62
2023/11/15 08:01:31;;;;;;;13.00;8.60;;;;;;;14.95;70.89;99630.39;107841;1290;22162;-69
2023/11/15 08:03:57;;;;;;;13.20;7.40;;;;;;;14.97;70.92;99617.41;107797;1287;22019;-69
2023/11/15 08:06:22;;;;;;;10.60;7.60;;;;;;;15.03;70.75;99613.80;107800;1290;21999;-69
2023/11/15 08:08:48;;;;;;;12.20;7.50;;;;;;;15.09;70.83;99607.72;107834;1286;22031;-68
2023/11/15 08:11:14;;;;;;;11.70;7.80;;;;;;;15.12;70.99;99605.10;107808;1286;21997;-62
2023/11/15 08:13:41;;;;;;;10.90;7.50;;;;;;;15.15;71.04;99624.41;107817;1289;21991;-62
2023/11/15 08:16:12;;;;;;;13.00;7.50;;;;;;;15.18;71.04;99630.16;107846;1290;21988;-62
2023/11/15 08:18:39;;;;;;;12.60;7.60;;;;;;;15.21;71.21;99636.40;107903;1287;23618;-69
2023/11/15 08:21:05;;;;;;;11.00;7.00;;;;;;;15.24;71.33;99642.08;107918;1290;21998;-69
2023/11/15 08:23:31;;;;;;;10.60;6.60;;;;;;;15.27;71.44;99635.02;107913;1290;22013;-69
2023/11/15 08:26:02;;;;;;;12.90;7.30;;;;;;;15.31;71.61;99647.77;107904;1290;21995;-69
2023/11/15 08:28:30;;;;;;;9.90;6.00;;;;;;;15.35;71.53;99657.35;107996;1290;21987;-62
2023/11/15 08:30:58;;;;;;;10.70;6.60;;;;;;;15.39;71.76;99652.91;107968;1290;21988;-68
2023/11/15 08:33:24;;;;;;;11.60;6.10;;;;;;;15.45;71.85;99651.92;107894;1290;22005;-69
2023/11/15 08:35:50;;;;;;;9.20;6.20;;;;;;;15.49;71.79;99652.29;107812;1290;22022;-65
2023/11/15 08:38:18;;;;;;;10.10;5.40;;;;;;;15.54;71.77;99651.75;107790;1284;21994;-68
2023/11/15 08:40:49;;;;;;;10.10;5.40;;;;;;;15.60;71.79;99648.09;107923;1290;21998;-69
2023/11/15 08:43:17;;;;;;;9.00;5.90;;;;;;;15.61;71.93;99636.90;107813;1290;22063;-62
2023/11/15 08:45:44;;;;;;;11.50;6.10;;;;;;;15.63;71.82;99640.54;107156;1290;1002244;-62
2023/11/15 08:48:17;;;;;;;10.70;6.30;;;;;;;15.66;71.59;99634.92;107882;1284;22027;-62
2023/11/15 08:50:47;;;;;;;7.20;5.50;;;;;;;15.67;71.64;99633.67;107863;1289;22000;-62
2023/11/15 08:53:14;;;;;;;;;;;;;;;15.62;71.59;99631.20;107838;1290;21983;-62
2023/11/15 08:55:44;;;;;;;8.30;5.60;;;;;;;15.57;71.69;99623.81;107814;1284;22020;-63
2023/11/15 08:58:14;;;;;;;8.20;5.40;;;;;;;15.57;71.81;99618.51;107819;1284;23761;-68
2023/11/15 09:00:46;;;;;;;11.70;5.80;;;;;;;15.58;71.74;99611.77;107895;1290;22000;-63
2023/11/15 09:03:13;;;;;;;7.30;5.50;;;;;;;15.58;71.83;99610.55;107937;1291;21990;-62
2023/11/15 09:05:43;;;;;;;8.60;5.80;;;;;;;15.58;71.97;99608.76;107838;1290;22030;-68
2023/11/15 09:08:10;;;;;;;8.60;6.20;;;;;;;15.58;72.26;99608.02;107801;1284;21992;-62
2023/11/15 09:10:36;;;;;;;9.90;6.30;;;;;;;15.60;72.24;99591.31;107916;1290;21998;-62
2023/11/15 09:13:03;;;;;;;9.00;6.60;;;;;;;15.64;72.12;99582.48;107810;1283;22015;-66
2023/11/15 09:15:31;;;;;;;8.70;6.70;;;;;;;15.69;72.25;99575.92;107875;1290;21984;-61
2023/11/15 09:17:57;;;;;;;9.40;6.70;;;;;;;15.72;72.34;99559.14;107893;1290;22000;-68
2023/11/15 09:20:29;;;;;;;10.10;6.50;;;;;;;15.73;72.32;99543.71;107838;1290;21999;-62
2023/11/15 09:22:55;;;;;;;17.80;8.70;;;;;;;15.73;72.47;99544.21;107835;1280;22086;-68
2023/11/15 09:25:23;;;;;;;11.80;6.10;;;;;;;15.74;72.41;99554.40;107949;1279;21984;-63
2023/11/15 09:27:54;;;;;;;10.40;6.60;;;;;;;15.78;72.55;99555.34;107841;1290;23628;-69
2023/11/15 09:30:25;;;;;;;7.80;5.70;;;;;;;15.80;72.37;99554.02;107908;1290;22012;-63
2023/11/15 09:32:54;;;;;;;;;;;;;;;15.80;72.19;99550.80;107943;1283;23699;-69
2023/11/15 09:35:27;;;;;;;9.80;5.70;;;;;;;15.80;72.17;99548.34;107873;1290;22116;-67
2023/11/15 09:37:53;;;;;;;8.10;5.50;;;;;;;15.79;72.27;99552.09;107844;1290;21995;-68
2023/11/15 09:40:21;;;;;;;9.40;6.30;;;;;;;15.80;72.41;99552.91;107899;1290;22025;-68
2023/11/15 09:42:54;;;;;;;9.90;6.10;;;;;;;15.81;72.38;99551.45;107800;1290;21997;-63
2023/11/15 09:45:23;;;;;;;7.90;5.40;;;;;;;15.81;72.31;99547.06;107835;1284;22000;-68
2023/11/15 09:47:56;;;;;;;8.70;5.80;;;;;;;15.82;72.33;99540.13;107925;1290;23040;-62
2023/11/15 09:50:23;;;;;;;7.20;4.60;;;;;;;15.84;72.43;99538.61;107900;1290;21990;-68
2023/11/15 09:52:50;;;;;;;7.20;5.60;;;;;;;15.84;72.28;99532.58;107068;1290;1003039;-68
2023/11/15 09:55:24;;;;;;;7.10;4.90;;;;;;;15.86;72.79;99528.60;107882;1290;24428;-68
2023/11/15 09:57:51;;;;;;;7.50;5.20;;;;;;;15.90;72.96;99522.75;107897;1290;21989;-68
2023/11/15 10:00:20;;;;;;;7.60;5.50;;;;;;;15.97;73.04;99523.52;107887;1290;21994;-68
2023/11/15 10:02:50;;;;;;;9.00;5.50;;;;;;;16.00;72.74;99528.67;107877;1290;21984;-63
2023/11/15 10:05:23;;;;;;;7.40;4.80;;;;;;;16.03;72.65;99537.91;107849;1290;21997;-62
2023/11/15 10:07:52;;;;;;;7.40;5.00;;;;;;;16.05;72.63;99540.30;107804;1290;21985;-63
2023/11/15 10:10:24;;;;;;;8.30;5.40;;;;;;;16.05;72.52;99543.64;107931;1290;23729;-68
2023/11/15 10:12:51;;;;;;;7.80;5.40;;;;;;;16.05;72.38;99537.80;107872;1290;21993;-68
2023/11/15 10:15:39;;;;;;;5.80;4.10;;;;;;;16.04;72.44;99530.95;107902;1290;22030;-68
2023/11/15 10:18:08;;;;;;;6.00;3.40;;;;;;;16.05;72.52;99527.72;107827;1290;21993;-62
2023/11/15 10:20:34;;;;;;;4.50;3.20;;;;;;;16.07;72.48;99531.55;107878;1290;22006;-68
2023/11/15 10:23:00;;;;;;;5.50;3.20;;;;;;;16.10;72.57;99540.95;107860;1290;21996;-68
2023/11/15 10:25:25;;;;;;;7.50;3.50;;;;;;;16.11;72.56;99540.36;107807;1290;22033;-62
2023/11/15 10:28:01;;;;;;;4.90;3.10;;;;;;;16.14;72.51;99536.45;107867;1290;21997;-68
2023/11/15 10:30:27;;;;;;;5.70;4.10;;;;;;;16.17;72.57;99533.86;107817;1290;21995;-63
2023/11/15 10:33:10;;;;;;;5.10;3.00;;;;;;;16.18;72.61;99527.79;107889;1287;21947;-63
2023/11/15 10:35:36;;;;;;;5.40;3.10;;;;;;;16.19;72.54;99522.23;107843;1287;22002;-69
2023/11/15 10:38:02;;;;;;;5.30;3.20;;;;;;;16.23;72.82;99514.27;107821;1290;22104;-68
2023/11/15 10:40:30;;;;;;;6.60;3.20;;;;;;;16.27;72.78;99513.36;107858;1290;21994;-63
2023/11/15 10:42:58;;;;;;;5.70;3.30;;;;;;;16.30;72.61;99510.40;107870;1290;21991;-69
2023/11/15 10:45:27;;;;;;;6.00;2.70;;;;;;;16.33;72.55;99496.95;107834;1290;170224;-62
2023/11/15 10:48:06;;;;;;;4.50;2.80;;;;;;;16.38;72.38;99494.59;107834;1290;22000;-62
2023/11/15 10:50:34;;;;;;;4.80;3.20;;;;;;;16.38;71.86;99493.71;107905;1290;21990;-69
2023/11/15 10:53:01;;;;;;;7.10;3.50;;;;;;;16.39;72.05;99499.89;107867;1290;22001;-62
2023/11/15 10:55:30;;;;;;;6.60;3.40;;;;;;;16.37;72.02;99509.00;107935;1290;22000;-63
2023/11/15 10:58:00;;;;;;;4.90;2.90;;;;;;;16.36;72.13;99510.42;107949;1290;22046;-62
2023/11/15 11:00:29;;;;;;;6.50;3.30;;;;;;;16.36;72.23;99502.29;107758;1290;21998;-68
2023/11/15 11:02:56;;;;;;;6.10;3.50;;;;;;;16.35;71.97;99492.09;108026;1290;21995;-62
2023/11/15 11:05:52;;;;;;;5.80;3.90;;;;;;;16.31;72.36;99495.08;107932;1290;21965;-68
2023/11/15 11:08:53;;;;;;;5.80;3.70;;;;;;;16.29;72.76;99495.59;107826;1290;22002;-62
2023/11/15 11:11:26;;;;;;;4.40;2.90;;;;;;;16.27;72.27;99489.29;107883;1290;21980;-69
2023/11/15 11:14:15;;;;;;;4.50;2.30;;;;;;;16.24;71.86;99486.80;107912;1290;22030;-63
2023/11/15 11:16:44;;;;;;;3.20;1.90;;;;;;;16.24;71.71;99482.05;107868;1290;21998;-63
2023/11/15 11:19:22;;;;;;;3.20;1.40;;;;;;;16.21;71.05;99477.04;107863;1290;23715;-67